Time;durP1;ratioP1;P1;durP2;ratioP2;P2;SDS_P1;SDS_P2;PMS_P1;PMS_P2;Temp;Humidity;BMP_temperature;BMP_pressure;BME280_temperature;BME280_humidity;BME280_pressure;Samples;Min_cycle;Max_cycle;Signal;HPM_P1;HPM_P2
2022/07/19 00:02:00;;;;;;;2.55;1.30;;;25.90;53.80;;;;;;6095469;23;91114;-82
2022/07/19 00:04:26;;;;;;;2.08;1.42;;;25.80;53.80;;;;;;6093536;23;95111;-82
2022/07/19 00:06:54;;;;;;;1.45;1.10;;;25.90;53.90;;;;;;6094672;23;93245;-82
2022/07/19 00:09:22;;;;;;;1.75;1.23;;;25.90;53.90;;;;;;6095492;23;93387;-82
2022/07/19 00:11:47;;;;;;;1.70;1.30;;;25.80;53.80;;;;;;6094196;23;92280;-81
2022/07/19 00:14:13;;;;;;;2.00;1.38;;;25.80;53.90;;;;;;6094584;23;91940;-82
2022/07/19 00:16:39;;;;;;;1.50;1.30;;;25.80;53.90;;;;;;6093960;23;93260;-82
2022/07/19 00:19:05;;;;;;;1.70;1.38;;;25.90;53.90;;;;;;6094005;23;92160;-82
2022/07/19 00:21:30;;;;;;;5.03;1.65;;;25.80;54.00;;;;;;6094264;23;91848;-81
2022/07/19 00:23:56;;;;;;;2.88;1.48;;;25.80;54.00;;;;;;6094612;23;93096;-82
2022/07/19 00:26:22;;;;;;;2.75;1.65;;;25.80;54.10;;;;;;6093835;23;91957;-82
2022/07/19 00:28:47;;;;;;;1.40;1.30;;;25.80;54.10;;;;;;6094930;23;91922;-82
2022/07/19 00:31:13;;;;;;;2.92;1.30;;;25.80;54.20;;;;;;6095044;23;91934;-81
2022/07/19 00:33:38;;;;;;;2.58;1.40;;;25.80;54.10;;;;;;6092866;23;94614;-82
2022/07/19 00:36:04;;;;;;;1.55;1.33;;;25.80;54.10;;;;;;6094536;23;94330;-82
2022/07/19 00:38:30;;;;;;;1.33;1.23;;;25.80;54.20;;;;;;6094701;23;92352;-81
2022/07/19 00:40:56;;;;;;;2.10;1.52;;;25.80;54.20;;;;;;6091982;23;92180;-82
2022/07/19 00:43:21;;;;;;;1.40;1.02;;;25.80;54.20;;;;;;6093776;23;93237;-81
2022/07/19 00:45:47;;;;;;;1.58;1.13;;;25.80;54.40;;;;;;6093737;23;92789;-82
2022/07/19 00:48:12;;;;;;;1.48;1.25;;;25.80;54.20;;;;;;6094159;23;92322;-81
2022/07/19 00:50:38;;;;;;;1.63;1.15;;;25.80;54.30;;;;;;6093933;23;91342;-82
2022/07/19 00:53:05;;;;;;;1.45;1.05;;;25.80;54.30;;;;;;6093561;23;93221;-81
2022/07/19 00:55:33;;;;;;;1.67;1.48;;;25.70;54.30;;;;;;6094179;23;93220;-82
2022/07/19 00:58:01;;;;;;;2.38;1.42;;;25.70;54.90;;;;;;6093521;23;93376;-82
2022/07/19 01:00:30;;;;;;;1.60;1.30;;;25.70;54.30;;;;;;6094293;23;92356;-82
2022/07/19 01:02:56;;;;;;;1.52;1.20;;;25.70;54.30;;;;;;6066724;23;95730;-82
2022/07/19 01:05:22;;;;;;;1.92;1.20;;;25.70;54.30;;;;;;6094276;23;92637;-81
2022/07/19 01:07:47;;;;;;;1.92;1.50;;;25.70;54.30;;;;;;6093872;23;92184;-82
2022/07/19 01:10:15;;;;;;;1.35;1.15;;;25.70;54.30;;;;;;6094197;23;92606;-82
2022/07/19 01:12:41;;;;;;;1.48;1.38;;;25.70;54.30;;;;;;6093708;23;95209;-82
2022/07/19 01:15:15;;;;;;;1.50;1.30;;;25.70;54.30;;;;;;6094160;23;94149;-81
2022/07/19 01:17:41;;;;;;;1.80;1.50;;;25.70;54.40;;;;;;6068147;23;92389;-81
2022/07/19 01:20:08;;;;;;;1.35;1.25;;;25.70;54.50;;;;;;6094194;23;92345;-81
2022/07/19 01:22:33;;;;;;;2.33;1.60;;;25.70;54.60;;;;;;6068053;23;98777;-82
2022/07/19 01:24:59;;;;;;;2.08;1.20;;;25.70;54.30;;;;;;6093798;23;94744;-82
2022/07/19 01:27:24;;;;;;;2.60;1.48;;;25.70;54.50;;;;;;6094420;23;92365;-82
2022/07/19 01:29:50;;;;;;;1.48;1.30;;;25.70;54.40;;;;;;6095032;23;92318;-82
2022/07/19 01:32:16;;;;;;;1.42;1.23;;;25.70;54.30;;;;;;6094139;23;93426;-82
2022/07/19 01:34:41;;;;;;;2.25;1.40;;;25.70;54.40;;;;;;6094135;23;91942;-82
2022/07/19 01:37:07;;;;;;;1.63;1.30;;;25.70;54.40;;;;;;6094860;23;91836;-82
2022/07/19 01:39:32;;;;;;;2.30;1.35;;;25.70;54.40;;;;;;6094258;23;91654;-82
2022/07/19 01:41:58;;;;;;;2.60;1.30;;;25.60;54.40;;;;;;6093211;23;93708;-82
2022/07/19 01:44:26;;;;;;;1.83;1.45;;;25.60;54.40;;;;;;6094928;23;92994;-82
2022/07/19 01:46:52;;;;;;;1.38;1.23;;;25.60;54.40;;;;;;6094142;23;92897;-82
2022/07/19 01:49:17;;;;;;;1.90;1.20;;;25.60;54.40;;;;;;6094586;23;91934;-82
2022/07/19 01:51:43;;;;;;;2.25;1.70;;;25.60;54.50;;;;;;6093576;23;92410;-82
2022/07/19 01:54:08;;;;;;;1.67;1.20;;;25.60;54.50;;;;;;6094152;23;92987;-82
2022/07/19 01:56:34;;;;;;;2.80;1.48;;;25.60;54.50;;;;;;6093532;23;92197;-82
2022/07/19 01:58:59;;;;;;;2.22;1.50;;;25.60;54.60;;;;;;6093314;23;92303;-81
2022/07/19 02:01:25;;;;;;;2.13;1.40;;;25.60;54.60;;;;;;6093881;23;93565;-81
2022/07/19 02:03:51;;;;;;;1.67;1.50;;;25.60;54.50;;;;;;6094621;23;93191;-82
2022/07/19 02:06:16;;;;;;;2.63;1.25;;;25.60;54.50;;;;;;6093999;23;92255;-82
2022/07/19 02:08:42;;;;;;;1.63;1.48;;;25.60;54.60;;;;;;6093584;23;91939;-83
2022/07/19 02:13:52;;;;;;;2.33;1.48;;;25.60;54.60;;;;;;6093387;23;92407;-82
2022/07/19 02:16:18;;;;;;;2.22;1.63;;;25.60;54.70;;;;;;6094155;23;92165;-82
2022/07/19 02:18:43;;;;;;;2.63;1.42;;;25.60;54.80;;;;;;6067580;23;92573;-82
2022/07/19 02:21:09;;;;;;;1.98;1.35;;;25.60;54.80;;;;;;6093968;23;93504;-82
2022/07/19 02:23:35;;;;;;;1.75;1.48;;;25.60;54.60;;;;;;6094376;23;92846;-81
2022/07/19 02:26:03;;;;;;;1.63;1.30;;;25.60;54.60;;;;;;6093590;23;92530;-82
2022/07/19 02:28:28;;;;;;;1.70;1.45;;;25.60;54.70;;;;;;6093485;23;92434;-82
2022/07/19 02:30:54;;;;;;;1.85;1.30;;;25.60;54.60;;;;;;6092754;23;93419;-82
2022/07/19 02:33:19;;;;;;;1.98;1.58;;;25.60;54.40;;;;;;6092832;23;92577;-82
2022/07/19 02:35:45;;;;;;;1.50;1.40;;;25.60;54.60;;;;;;6093660;23;92914;-81
2022/07/19 02:38:11;;;;;;;1.38;1.25;;;25.50;54.60;;;;;;6093002;23;92033;-81
2022/07/19 02:40:36;;;;;;;1.50;1.38;;;25.50;54.60;;;;;;6093718;23;94866;-81
2022/07/19 02:43:02;;;;;;;1.95;1.52;;;25.50;54.50;;;;;;6092945;23;92761;-81
2022/07/19 02:45:27;;;;;;;2.40;1.70;;;25.50;54.50;;;;;;6093776;23;92273;-82
2022/07/19 02:47:53;;;;;;;1.80;1.52;;;25.50;54.50;;;;;;6092809;23;91878;-81
2022/07/19 02:50:18;;;;;;;1.67;1.40;;;25.50;54.60;;;;;;6093475;23;93015;-82
2022/07/19 02:52:44;;;;;;;2.45;1.60;;;25.50;54.60;;;;;;6094672;23;93032;-82
2022/07/19 02:55:10;;;;;;;1.85;1.00;;;25.50;54.70;;;;;;6093968;23;91954;-82
2022/07/19 02:57:35;;;;;;;1.40;1.10;;;25.50;54.50;;;;;;6093389;23;91896;-81
2022/07/19 03:00:03;;;;;;;2.25;1.42;;;25.50;54.60;;;;;;6093336;23;95111;-81
2022/07/19 03:02:29;;;;;;;1.75;1.48;;;25.50;54.70;;;;;;6092530;23;94147;-81
2022/07/19 03:04:54;;;;;;;1.42;1.30;;;25.50;54.50;;;;;;6092805;23;92345;-81
2022/07/19 03:07:21;;;;;;;1.25;1.13;;;25.50;54.60;;;;;;6094735;23;92187;-81
2022/07/19 03:09:47;;;;;;;2.35;1.50;;;25.50;54.60;;;;;;6094463;23;94581;-81
2022/07/19 03:12:13;;;;;;;2.17;1.20;;;25.50;54.60;;;;;;6094023;23;93602;-82
2022/07/19 03:14:38;;;;;;;2.15;1.45;;;25.50;54.60;;;;;;6095248;23;92463;-82
2022/07/19 03:17:04;;;;;;;1.52;1.30;;;25.50;54.60;;;;;;6095540;23;91084;-82
2022/07/19 03:19:29;;;;;;;1.58;1.40;;;25.50;54.60;;;;;;6093791;23;92483;-82
2022/07/19 03:21:55;;;;;;;2.05;1.45;;;25.50;54.60;;;;;;6094100;23;92441;-82
2022/07/19 03:24:21;;;;;;;1.83;1.30;;;25.50;54.50;;;;;;6092640;23;93403;-82
2022/07/19 03:26:46;;;;;;;1.95;1.23;;;25.50;54.70;;;;;;6091842;23;92232;-82
2022/07/19 03:29:12;;;;;;;1.80;1.30;;;25.50;54.70;;;;;;6093955;23;93443;-81
2022/07/19 03:31:38;;;;;;;1.65;1.30;;;25.50;54.80;;;;;;6093561;23;93284;-82
2022/07/19 03:34:03;;;;;;;2.78;1.70;;;25.50;54.80;;;;;;6094785;23;92215;-82
2022/07/19 03:36:29;;;;;;;1.70;1.30;;;25.50;54.80;;;;;;6068161;23;91911;-81
2022/07/19 03:38:56;;;;;;;1.67;1.10;;;25.50;54.90;;;;;;6094138;23;92995;-82
2022/07/19 03:41:21;;;;;;;1.48;1.10;;;25.50;54.80;;;;;;6094653;23;92657;-82
2022/07/19 03:43:47;;;;;;;1.17;1.08;;;25.50;54.80;;;;;;6094414;23;92261;-81
2022/07/19 03:46:13;;;;;;;5.60;1.50;;;25.40;54.60;;;;;;6094483;23;91831;-81
2022/07/19 03:48:38;;;;;;;1.67;1.30;;;25.40;54.70;;;;;;6093505;23;93946;-81
2022/07/19 03:51:04;;;;;;;1.42;1.20;;;25.40;54.80;;;;;;6094115;23;93281;-82
2022/07/19 03:53:30;;;;;;;1.80;1.23;;;25.40;54.70;;;;;;6094890;23;91940;-81
2022/07/19 03:55:55;;;;;;;1.70;1.30;;;25.40;54.80;;;;;;6094632;23;91918;-82
2022/07/19 03:58:21;;;;;;;1.42;1.23;;;25.40;54.60;;;;;;6094747;23;93448;-82
2022/07/19 04:00:47;;;;;;;1.33;1.23;;;25.40;54.70;;;;;;6093932;23;93031;-82
2022/07/19 04:03:12;;;;;;;1.48;1.38;;;25.40;54.60;;;;;;6095350;23;92271;-81
2022/07/19 04:05:38;;;;;;;1.45;1.08;;;25.40;54.70;;;;;;6093883;23;91640;-81
2022/07/19 04:08:04;;;;;;;1.60;1.30;;;25.40;54.60;;;;;;6094798;23;92551;-81
2022/07/19 04:10:29;;;;;;;3.40;1.60;;;25.40;54.70;;;;;;6094670;23;92227;-82
2022/07/19 04:12:55;;;;;;;1.42;1.25;;;25.40;54.80;;;;;;6092555;23;93271;-81
2022/07/19 04:15:21;;;;;;;1.98;1.48;;;25.40;54.80;;;;;;6092656;23;92216;-82
2022/07/19 04:17:46;;;;;;;1.73;1.17;;;25.40;54.80;;;;;;6094506;23;93201;-81
2022/07/19 04:20:12;;;;;;;1.50;1.23;;;25.40;54.70;;;;;;6094424;23;93278;-82
2022/07/19 04:22:38;;;;;;;1.23;1.08;;;25.40;54.60;;;;;;6094630;23;91882;-82
2022/07/19 04:25:04;;;;;;;2.08;1.50;;;25.40;54.70;;;;;;6092007;23;92368;-83
2022/07/19 04:27:33;;;;;;;1.80;1.30;;;25.40;54.70;;;;;;6093829;23;92393;-81
2022/07/19 04:29:58;;;;;;;1.50;1.20;;;25.40;54.70;;;;;;6094725;23;94821;-82
2022/07/19 04:32:24;;;;;;;1.48;1.38;;;25.40;54.70;;;;;;6094474;23;92379;-81
2022/07/19 04:34:50;;;;;;;1.60;1.40;;;25.40;54.80;;;;;;6094646;23;92007;-82
2022/07/19 04:37:15;;;;;;;1.98;1.50;;;25.40;54.70;;;;;;6092476;23;93744;-81
2022/07/19 04:39:41;;;;;;;1.73;1.40;;;25.40;54.50;;;;;;6093833;23;94002;-82
2022/07/19 04:42:07;;;;;;;2.55;1.35;;;25.40;54.60;;;;;;6094761;23;91805;-82
2022/07/19 04:44:33;;;;;;;1.98;1.30;;;25.50;54.50;;;;;;6094859;23;92049;-82
2022/07/19 04:46:59;;;;;;;2.08;1.30;;;25.50;54.50;;;;;;6093844;23;94001;-81
2022/07/19 04:49:24;;;;;;;2.10;1.40;;;25.50;54.50;;;;;;6093163;23;92836;-81
2022/07/19 04:51:50;;;;;;;1.50;1.08;;;25.50;54.50;;;;;;6094062;23;92351;-82
2022/07/19 04:54:16;;;;;;;1.48;1.08;;;25.50;54.50;;;;;;6095344;23;91563;-82
2022/07/19 04:56:42;;;;;;;1.40;1.20;;;25.50;54.40;;;;;;6067162;23;96689;-82
2022/07/19 04:59:07;;;;;;;1.50;1.25;;;25.50;54.30;;;;;;6094074;23;93405;-81
2022/07/19 05:01:34;;;;;;;1.10;1.00;;;25.50;54.30;;;;;;6093728;23;93132;-82
2022/07/19 05:04:00;;;;;;;1.88;1.63;;;25.60;54.50;;;;;;6094632;23;92290;-81
2022/07/19 05:06:25;;;;;;;2.90;1.13;;;25.60;54.40;;;;;;6094120;23;92507;-81
2022/07/19 05:08:56;;;;;;;1.40;1.30;;;25.60;54.40;;;;;;6093539;23;92199;-82
2022/07/19 05:11:22;;;;;;;1.70;1.40;;;25.60;54.30;;;;;;6093825;23;92315;-82
2022/07/19 05:13:48;;;;;;;1.08;0.98;;;25.60;54.30;;;;;;6094165;23;91955;-81
2022/07/19 05:16:14;;;;;;;2.80;1.50;;;25.60;54.20;;;;;;6093384;23;92677;-81
2022/07/19 05:18:39;;;;;;;1.23;1.13;;;25.60;54.30;;;;;;6094060;23;93010;-81
2022/07/19 05:21:05;;;;;;;2.00;1.35;;;25.70;54.50;;;;;;6093663;23;91822;-81
2022/07/19 05:23:31;;;;;;;1.35;1.17;;;25.60;54.30;;;;;;6093627;23;91903;-82
2022/07/19 05:25:57;;;;;;;1.50;1.20;;;25.70;54.30;;;;;;6093512;23;94446;-82
2022/07/19 05:28:23;;;;;;;3.25;1.40;;;25.70;54.30;;;;;;6093788;23;93745;-82
2022/07/19 05:30:48;;;;;;;1.40;1.30;;;25.70;54.30;;;;;;6092754;23;92090;-82
2022/07/19 05:33:16;;;;;;;1.75;1.35;;;25.70;54.30;;;;;;6094302;23;92339;-81
2022/07/19 05:35:42;;;;;;;1.70;1.23;;;25.70;54.20;;;;;;6093359;23;94585;-82
2022/07/19 05:38:07;;;;;;;1.50;1.25;;;25.70;54.20;;;;;;6093552;23;93185;-82
2022/07/19 05:40:33;;;;;;;1.23;1.10;;;25.70;54.10;;;;;;6094733;23;92426;-81
2022/07/19 05:42:58;;;;;;;1.50;1.08;;;25.80;54.30;;;;;;6069251;23;91677;-82
2022/07/19 05:45:24;;;;;;;2.03;1.10;;;25.80;54.40;;;;;;6094482;23;93122;-81
2022/07/19 05:47:50;;;;;;;1.25;1.15;;;25.80;54.30;;;;;;6092969;23;92648;-81
2022/07/19 05:50:15;;;;;;;1.52;1.38;;;25.80;54.30;;;;;;6094954;23;93337;-82
2022/07/19 05:52:41;;;;;;;1.30;1.17;;;25.80;54.20;;;;;;6094338;23;91912;-82
2022/07/19 05:55:07;;;;;;;1.95;1.40;;;25.80;54.20;;;;;;6093538;23;92969;-82
2022/07/19 05:57:32;;;;;;;2.35;1.25;;;25.80;54.20;;;;;;6094204;23;92689;-82
2022/07/19 05:59:58;;;;;;;1.35;1.13;;;25.90;54.30;;;;;;6094191;23;92144;-82
2022/07/19 06:02:24;;;;;;;2.22;1.40;;;25.90;54.10;;;;;;6094397;23;92252;-82
2022/07/19 06:04:49;;;;;;;2.00;1.25;;;25.90;54.10;;;;;;6093813;23;94647;-82
2022/07/19 06:07:15;;;;;;;3.13;1.40;;;25.90;54.00;;;;;;6091973;23;94312;-82
2022/07/19 06:09:41;;;;;;;1.48;1.15;;;25.90;54.20;;;;;;6092265;23;92394;-82
2022/07/19 06:12:06;;;;;;;3.15;1.50;;;25.90;54.10;;;;;;6066583;23;92332;-81
2022/07/19 06:14:32;;;;;;;11.77;2.75;;;25.90;53.30;;;;;;6091925;23;95022;-81
2022/07/19 06:16:57;;;;;;;6.63;2.22;;;26.00;53.60;;;;;;6092400;23;93998;-80
2022/07/19 06:19:23;;;;;;;6.68;2.25;;;25.90;53.40;;;;;;6093416;23;92460;-81
2022/07/19 06:21:49;;;;;;;4.13;2.20;;;25.90;53.50;;;;;;6093286;23;92318;-81
2022/07/19 06:24:14;;;;;;;8.57;2.40;;;25.90;53.70;;;;;;6092982;23;95258;-79
2022/07/19 06:26:40;;;;;;;6.78;2.55;;;25.80;53.70;;;;;;6091115;23;93628;-79
2022/07/19 06:29:06;;;;;;;12.30;2.80;;;25.90;54.10;;;;;;6063042;23;92360;-79
2022/07/19 06:31:32;;;;;;;8.45;2.53;;;25.90;53.90;;;;;;6064008;23;91583;-79
2022/07/19 06:33:58;;;;;;;10.23;2.88;;;25.90;53.60;;;;;;6089973;23;91988;-79
2022/07/19 06:36:23;;;;;;;9.20;3.10;;;25.90;53.60;;;;;;6092844;23;93091;-80
2022/07/19 06:38:49;;;;;;;9.60;2.92;;;25.90;53.40;;;;;;6092542;23;93241;-80
2022/07/19 06:41:16;;;;;;;11.45;2.53;;;25.90;53.30;;;;;;6066371;23;92208;-80
2022/07/19 06:43:42;;;;;;;8.20;2.95;;;25.90;53.00;;;;;;6092155;23;93708;-79
2022/07/19 06:46:08;;;;;;;7.40;2.97;;;25.90;52.50;;;;;;6091282;23;92752;-79
2022/07/19 06:48:33;;;;;;;5.68;2.55;;;25.90;52.30;;;;;;6091362;23;92226;-79
2022/07/19 06:51:02;;;;;;;6.90;3.13;;;25.90;52.40;;;;;;6088863;23;92235;-79
2022/07/19 06:53:29;;;;;;;9.45;2.75;;;26.00;52.80;;;;;;6090553;23;92961;-79
2022/07/19 06:55:54;;;;;;;8.98;3.08;;;25.90;53.20;;;;;;6065169;23;95435;-80
2022/07/19 06:58:20;;;;;;;6.93;2.70;;;26.00;53.60;;;;;;6062951;23;92388;-80
2022/07/19 07:00:48;;;;;;;10.38;2.80;;;26.00;53.80;;;;;;6064293;23;92517;-80
2022/07/19 07:03:15;;;;;;;6.17;2.60;;;26.10;54.10;;;;;;6090055;23;92927;-80
2022/07/19 07:05:40;;;;;;;5.05;2.67;;;26.10;54.00;;;;;;5972199;23;94194;-80
2022/07/19 07:08:06;;;;;;;8.13;2.88;;;26.20;54.10;;;;;;6087696;23;91952;-80
2022/07/19 07:10:32;;;;;;;5.93;2.80;;;26.30;54.10;;;;;;6089884;23;92455;-80
2022/07/19 07:12:57;;;;;;;7.13;2.75;;;26.30;53.90;;;;;;6089941;23;92042;-80
2022/07/19 07:15:23;;;;;;;7.78;2.83;;;26.20;53.80;;;;;;6089003;23;92590;-80
2022/07/19 07:17:48;;;;;;;4.63;2.25;;;26.20;53.90;;;;;;6091530;23;92159;-80
2022/07/19 07:20:14;;;;;;;8.80;2.55;;;26.20;54.30;;;;;;6090072;23;91246;-80
2022/07/19 07:22:40;;;;;;;10.05;2.40;;;26.20;54.40;;;;;;6089880;23;93601;-80
2022/07/19 07:25:08;;;;;;;10.35;2.90;;;26.10;54.60;;;;;;6089873;23;93387;-81
2022/07/19 07:27:33;;;;;;;5.45;2.63;;;26.10;54.60;;;;;;6089555;23;93439;-80
2022/07/19 07:29:59;;;;;;;9.40;3.25;;;26.00;54.60;;;;;;6090574;23;91881;-80
2022/07/19 07:32:26;;;;;;;15.85;4.50;;;26.10;54.70;;;;;;6089769;23;91943;-80
2022/07/19 07:34:52;;;;;;;25.75;5.78;;;26.00;54.70;;;;;;6087511;23;92832;-80
2022/07/19 07:37:18;;;;;;;24.88;5.97;;;26.00;54.70;;;;;;6090116;23;92016;-80
2022/07/19 07:39:43;;;;;;;33.67;6.28;;;26.00;54.80;;;;;;6090621;23;92197;-81
2022/07/19 07:42:09;;;;;;;26.02;6.90;;;26.00;54.90;;;;;;6088522;23;93111;-80
2022/07/19 07:44:35;;;;;;;31.85;7.82;;;26.00;54.70;;;;;;6089104;23;92648;-80
2022/07/19 07:47:00;;;;;;;23.77;6.55;;;26.00;55.10;;;;;;6089931;23;93063;-81
2022/07/19 07:49:26;;;;;;;27.50;7.00;;;26.00;54.80;;;;;;6089754;23;92395;-80
2022/07/19 07:51:52;;;;;;;34.17;7.47;;;26.00;54.70;;;;;;6088269;23;93924;-81
2022/07/19 07:54:17;;;;;;;27.98;7.20;;;26.00;54.70;;;;;;6090629;23;93518;-81
2022/07/19 07:56:43;;;;;;;24.48;6.35;;;26.00;54.60;;;;;;6090351;23;91874;-81
2022/07/19 07:59:08;;;;;;;27.40;6.50;;;26.00;54.60;;;;;;6090590;23;92163;-81
2022/07/19 08:01:34;;;;;;;19.50;6.00;;;26.00;54.50;;;;;;6090136;23;93834;-81
2022/07/19 08:04:00;;;;;;;25.60;7.25;;;26.00;54.50;;;;;;6088692;23;94049;-80
2022/07/19 08:06:26;;;;;;;19.15;6.75;;;26.00;54.60;;;;;;6088994;23;92245;-81
2022/07/19 08:08:52;;;;;;;20.15;6.03;;;26.00;54.60;;;;;;6090279;23;91861;-80
2022/07/19 08:11:18;;;;;;;22.00;7.15;;;26.00;54.60;;;;;;6089521;23;94589;-81
2022/07/19 08:13:43;;;;;;;23.27;7.18;;;26.00;54.40;;;;;;6089493;23;93243;-81
2022/07/19 08:16:09;;;;;;;23.95;6.70;;;26.00;54.40;;;;;;6088917;23;92777;-80
2022/07/19 08:18:34;;;;;;;18.23;6.25;;;26.00;54.40;;;;;;6090271;23;92551;-81
2022/07/19 08:21:00;;;;;;;22.35;6.82;;;26.10;54.50;;;;;;6089671;23;93855;-80
2022/07/19 08:23:26;;;;;;;17.67;6.30;;;26.00;54.50;;;;;;6092736;23;93214;-81
2022/07/19 08:25:52;;;;;;;20.95;6.30;;;26.00;54.50;;;;;;6091228;23;92377;-81
2022/07/19 08:28:18;;;;;;;20.10;6.82;;;26.00;54.30;;;;;;6091758;23;92307;-81
2022/07/19 08:30:44;;;;;;;21.08;6.88;;;26.00;54.30;;;;;;6090862;23;93079;-80
2022/07/19 08:33:09;;;;;;;16.75;5.72;;;26.00;54.20;;;;;;6090829;23;93175;-80
2022/07/19 08:35:36;;;;;;;16.98;6.00;;;26.00;54.40;;;;;;6089215;23;92273;-81
2022/07/19 08:38:01;;;;;;;16.48;6.22;;;26.00;54.40;;;;;;6064168;23;91964;-80
2022/07/19 08:40:27;;;;;;;25.27;5.90;;;26.00;54.40;;;;;;6089444;23;95911;-80
2022/07/19 08:42:57;;;;;;;20.48;6.68;;;26.10;54.40;;;;;;6089840;23;93240;-80
2022/07/19 08:45:25;;;;;;;18.33;6.00;;;26.10;54.40;;;;;;6090640;23;92427;-81
2022/07/19 08:47:51;;;;;;;15.77;6.10;;;26.00;54.50;;;;;;6091908;23;92789;-82
2022/07/19 08:50:17;;;;;;;15.48;5.85;;;26.10;54.40;;;;;;6065407;23;96441;-81
2022/07/19 08:52:42;;;;;;;14.18;5.40;;;26.00;54.30;;;;;;6091361;23;93288;-81
2022/07/19 08:55:09;;;;;;;17.13;5.57;;;26.00;54.40;;;;;;6089307;23;92092;-81
2022/07/19 09:00:19;;;;;;;14.07;5.70;;;26.00;54.40;;;;;;6090451;23;92253;-80
2022/07/19 09:02:56;;;;;;;13.85;5.40;;;26.00;54.50;;;;;;6091304;23;92796;-81
2022/07/19 09:05:23;;;;;;;14.82;5.00;;;26.10;54.70;;;;;;6088931;23;93212;-80
2022/07/19 09:08:02;;;;;;;17.60;5.68;;;26.10;54.80;;;;;;6062959;23;92344;-81
2022/07/19 09:10:28;;;;;;;15.85;5.72;;;26.20;54.50;;;;;;6092445;23;92669;-82
2022/07/19 09:13:07;;;;;;;17.27;5.35;;;26.30;54.80;;;;;;6091702;23;93236;-81
2022/07/19 09:15:42;;;;;;;21.15;5.28;;;26.40;54.70;;;;;;6095230;23;91843;-82
2022/07/19 09:18:30;;;;;;;20.83;5.65;;;26.40;54.70;;;;;;6092069;23;92243;-81
2022/07/19 09:20:58;;;;;;;35.88;6.20;;;26.40;54.70;;;;;;6094011;23;92706;-82
2022/07/19 09:23:24;;;;;;;22.17;5.60;;;26.40;54.80;;;;;;6094653;23;92937;-82
2022/07/19 09:25:53;;;;;;;18.70;4.68;;;26.30;54.80;;;;;;6094253;23;91874;-82
2022/07/19 09:28:21;;;;;;;17.58;5.15;;;26.30;55.00;;;;;;6094012;23;91859;-82
2022/07/19 09:30:52;;;;;;;23.90;5.27;;;26.30;55.10;;;;;;6091871;23;94432;-82
2022/07/19 09:33:24;;;;;;;17.70;5.75;;;26.30;55.40;;;;;;6092570;23;94400;-82
2022/07/19 09:35:52;;;;;;;19.55;4.88;;;26.40;55.80;;;;;;6094735;23;92187;-83
2022/07/19 09:38:22;;;;;;;14.33;6.07;;;26.40;55.80;;;;;;6095463;23;91878;-83
2022/07/19 09:41:08;;;;;;;17.75;5.32;;;26.50;56.30;;;;;;6095460;23;93349;-82
2022/07/19 09:43:53;;;;;;;17.85;5.85;;;26.50;56.00;;;;;;6091346;23;92752;-83
2022/07/19 09:46:32;;;;;;;16.65;4.97;;;26.50;56.30;;;;;;6094244;23;91965;-82
2022/07/19 09:49:04;;;;;;;15.80;4.38;;;26.60;56.10;;;;;;6095790;23;91192;-82
2022/07/19 09:51:32;;;;;;;15.10;4.63;;;26.50;56.00;;;;;;6092959;23;93069;-80
2022/07/19 09:53:58;;;;;;;18.63;4.72;;;26.50;56.00;;;;;;6015679;23;93704;-81
2022/07/19 09:56:25;;;;;;;21.40;4.95;;;26.50;56.30;;;;;;6090409;23;93014;-81
2022/07/19 09:58:52;;;;;;;16.08;4.47;;;26.50;56.20;;;;;;6015155;23;92495;-82
2022/07/19 10:01:17;;;;;;;19.80;6.07;;;26.50;56.30;;;;;;6092573;23;92447;-82
2022/07/19 10:03:43;;;;;;;14.70;5.03;;;26.50;56.40;;;;;;6092630;23;93419;-81
2022/07/19 10:06:09;;;;;;;12.27;4.70;;;26.50;56.30;;;;;;6092666;23;92477;-82
2022/07/19 10:08:37;;;;;;;19.38;4.53;;;26.40;56.30;;;;;;6092099;23;91907;-82
2022/07/19 10:11:07;;;;;;;10.35;4.93;;;26.40;56.40;;;;;;6093600;23;93365;-82
2022/07/19 10:13:33;;;;;;;16.40;5.25;;;26.50;57.40;;;;;;6065697;23;94465;-81
2022/07/19 10:16:03;;;;;;;13.98;4.65;;;26.60;56.90;;;;;;6092897;23;91906;-82
2022/07/19 10:18:36;;;;;;;17.08;4.07;;;26.60;57.40;;;;;;6092718;23;92547;-83
2022/07/19 10:21:03;;;;;;;12.65;4.40;;;26.60;57.20;;;;;;6092244;23;94254;-82
2022/07/19 10:23:31;;;;;;;11.77;3.92;;;26.60;57.40;;;;;;6091603;23;95491;-82
2022/07/19 10:25:57;;;;;;;13.53;3.87;;;26.70;57.20;;;;;;6092779;23;92260;-82
2022/07/19 10:28:34;;;;;;;10.90;4.25;;;26.60;57.30;;;;;;6091835;23;92524;-84
2022/07/19 10:31:00;;;;;;;11.65;3.90;;;26.60;57.50;;;;;;6092582;23;92743;-82
2022/07/19 10:33:35;;;;;;;10.85;3.95;;;26.60;58.00;;;;;;6065775;23;93930;-82
2022/07/19 10:36:38;;;;;;;13.70;4.18;;;26.70;57.70;;;;;;6093133;23;91917;-82
2022/07/19 10:39:21;;;;;;;6.70;3.45;;;26.60;57.40;;;;;;6092951;23;91475;-82
2022/07/19 10:42:17;;;;;;;15.35;4.45;;;26.60;57.50;;;;;;6064223;23;95961;-81
2022/07/19 10:45:13;;;;;;;12.55;4.03;;;26.60;57.70;;;;;;6034798;23;95556;-82
2022/07/19 10:47:42;;;;;;;13.90;3.92;;;26.60;57.60;;;;;;6001520;23;92888;-82
2022/07/19 10:50:14;;;;;;;;;;;26.60;57.80;;;;;;5977869;23;92524;-83
2022/07/19 10:52:42;;;;;;;9.18;3.22;;;26.60;57.90;;;;;;6002678;23;93295;-82
2022/07/19 10:55:17;;;;;;;17.08;4.43;;;26.60;54.60;;;;;;6001853;23;93515;-80
2022/07/19 10:58:05;;;;;;;10.23;3.47;;;26.60;55.80;;;;;;6000431;23;92452;-81
2022/07/19 11:00:40;;;;;;;8.30;3.55;;;26.60;53.10;;;;;;5945810;23;92121;-82
2022/07/19 11:03:21;;;;;;;8.88;3.53;;;26.70;55.00;;;;;;5944263;23;93491;-81
2022/07/19 11:05:51;;;;;;;11.55;4.35;;;26.70;54.80;;;;;;5945685;23;93813;-82
2022/07/19 11:08:17;;;;;;;14.68;3.70;;;26.80;54.80;;;;;;5944850;23;92026;-83
2022/07/19 11:10:43;;;;;;;10.85;3.92;;;26.80;54.90;;;;;;5920511;23;92313;-83
2022/07/19 11:13:09;;;;;;;11.00;3.90;;;26.80;54.90;;;;;;5942783;23;93880;-82
2022/07/19 11:15:34;;;;;;;8.98;3.50;;;26.80;55.00;;;;;;5943109;23;96834;-83
2022/07/19 11:18:06;;;;;;;7.05;3.08;;;26.80;55.40;;;;;;5945442;23;92582;-83
2022/07/19 11:20:36;;;;;;;10.10;3.25;;;26.80;55.30;;;;;;5944918;23;92552;-82
2022/07/19 11:23:04;;;;;;;10.45;3.95;;;26.80;55.30;;;;;;5946516;23;92765;-81
2022/07/19 11:25:31;;;;;;;6.30;2.80;;;26.80;55.30;;;;;;5974003;23;92509;-81
2022/07/19 11:28:00;;;;;;;9.85;3.00;;;26.80;55.30;;;;;;5974641;23;92412;-82
2022/07/19 11:30:27;;;;;;;;;;;26.80;55.30;;;;;;5975363;23;91635;-82
2022/07/19 11:32:59;;;;;;;6.53;2.67;;;26.80;55.40;;;;;;5974657;23;95801;-82
2022/07/19 11:35:25;;;;;;;5.88;3.10;;;26.80;55.60;;;;;;5973644;23;93428;-82
2022/07/19 11:37:53;;;;;;;7.22;3.25;;;26.80;55.40;;;;;;6044136;23;92916;-82
2022/07/19 11:40:20;;;;;;;4.45;2.58;;;26.80;55.40;;;;;;6093805;23;92708;-82
2022/07/19 11:42:47;;;;;;;7.10;3.47;;;26.80;55.40;;;;;;6092446;23;94316;-83
2022/07/19 11:45:18;;;;;;;6.20;2.78;;;26.80;55.40;;;;;;6092476;23;93168;-83
2022/07/19 11:47:48;;;;;;;7.00;2.85;;;26.80;55.30;;;;;;6094339;23;91942;-83
2022/07/19 11:50:16;;;;;;;7.95;2.78;;;26.90;56.10;;;;;;6094340;23;92219;-82
2022/07/19 11:52:56;;;;;;;6.30;2.92;;;26.80;55.30;;;;;;6093997;23;93209;-81
2022/07/19 11:55:24;;;;;;;9.82;3.25;;;26.90;55.40;;;;;;6093592;23;93312;-82
2022/07/19 11:57:50;;;;;;;4.50;2.63;;;26.80;55.50;;;;;;6094165;23;91854;-82
2022/07/19 12:00:17;;;;;;;13.65;3.13;;;26.90;55.50;;;;;;6093381;23;91906;-82
2022/07/19 12:02:52;;;;;;;5.63;2.58;;;26.90;55.40;;;;;;6093140;23;93952;-83
2022/07/19 12:05:17;;;;;;;4.95;2.20;;;26.90;55.40;;;;;;6092817;23;93199;-82
2022/07/19 12:07:48;;;;;;;7.95;3.40;;;26.90;55.40;;;;;;6093754;23;92087;-83
2022/07/19 12:10:37;;;;;;;5.25;2.60;;;26.90;55.40;;;;;;6093583;23;92807;-82
2022/07/19 12:13:07;;;;;;;4.97;2.95;;;26.90;55.40;;;;;;6066440;23;95265;-82
2022/07/19 12:15:48;;;;;;;4.32;2.72;;;26.90;55.40;;;;;;6093610;23;92519;-82
2022/07/19 12:18:19;;;;;;;3.55;2.38;;;26.90;55.20;;;;;;6093123;23;92385;-82
2022/07/19 12:21:14;;;;;;;7.70;2.85;;;26.90;55.60;;;;;;6093391;23;91713;-82
2022/07/19 12:23:39;;;;;;;6.75;2.72;;;26.90;55.50;;;;;;6093733;23;93339;-83
2022/07/19 12:26:05;;;;;;;5.38;2.72;;;26.90;55.50;;;;;;6094017;23;92413;-82
2022/07/19 12:28:31;;;;;;;5.95;2.65;;;26.90;55.30;;;;;;6092811;23;93468;-82
2022/07/19 12:31:06;;;;;;;5.93;2.63;;;26.90;55.30;;;;;;6090495;23;92241;-82
2022/07/19 12:33:32;;;;;;;7.00;2.22;;;26.90;55.50;;;;;;6093244;23;92341;-82
2022/07/19 12:35:58;;;;;;;4.47;2.40;;;26.90;55.20;;;;;;6092149;23;93314;-83
2022/07/19 12:38:33;;;;;;;6.03;2.60;;;26.90;55.50;;;;;;6092874;23;91892;-82
2022/07/19 12:41:08;;;;;;;4.85;2.40;;;26.90;55.40;;;;;;6092503;23;92527;-82
2022/07/19 12:43:35;;;;;;;6.43;2.42;;;27.00;55.40;;;;;;6093347;23;92761;-82
2022/07/19 12:46:01;;;;;;;3.97;2.33;;;26.90;55.40;;;;;;6093056;23;93166;-82
2022/07/19 12:48:27;;;;;;;5.55;2.42;;;26.90;55.40;;;;;;6094811;23;91989;-82
2022/07/19 12:50:53;;;;;;;8.60;3.20;;;26.90;55.40;;;;;;6092501;23;92288;-83
2022/07/19 12:53:20;;;;;;;5.30;2.45;;;26.90;55.40;;;;;;6091221;23;94473;-82